Time;durP1;ratioP1;P1;durP2;ratioP2;P2;SDS_P1;SDS_P2;PMS_P1;PMS_P2;Temp;Humidity;BMP_temperature;BMP_pressure;BME280_temperature;BME280_humidity;BME280_pressure;Samples;Min_cycle;Max_cycle;Signal;HPM_P1;HPM_P2
2023/06/06 00:00:13;;;;;;;;;10.60;9.60;;;;;18.48;55.57;99294.50;5036350;28;8865;-75
2023/06/06 00:03:03;;;;;;;;;12.60;12.60;;;;;18.54;55.48;99299.47;5101653;28;8903;-77
2023/06/06 00:05:33;;;;;;;;;11.60;10.00;;;;;18.58;55.35;99309.00;5073947;28;8846;-76
2023/06/06 00:08:02;;;;;;;;;6.40;6.40;;;;;18.63;55.08;99314.03;5067344;28;8863;-75
2023/06/06 00:10:31;;;;;;;;;15.60;15.40;;;;;18.61;55.12;99311.50;5050107;28;8872;-75
2023/06/06 00:13:02;;;;;;;;;10.20;10.20;;;;;18.67;54.91;99323.59;5100638;28;8891;-78
2023/06/06 00:15:31;;;;;;;;;9.60;9.60;;;;;18.77;54.55;99329.22;5067928;28;8874;-75
2023/06/06 00:18:00;;;;;;;;;13.20;10.80;;;;;18.79;54.48;99327.34;5068445;28;8962;-77
2023/06/06 00:20:32;;;;;;;;;11.20;11.00;;;;;18.81;54.21;99321.00;5068071;28;8850;-75
2023/06/06 00:23:01;;;;;;;;;10.60;10.60;;;;;18.87;54.21;99327.75;5068237;28;8886;-77
2023/06/06 00:25:30;;;;;;;;;9.40;9.40;;;;;18.93;54.05;99325.59;5068307;28;9656;-74
2023/06/06 00:27:59;;;;;;;;;11.20;11.20;;;;;19.00;53.67;99323.41;5068621;28;8894;-77
2023/06/06 00:30:30;;;;;;;;;9.80;9.60;;;;;19.02;53.50;99318.00;5080596;28;8887;-74
2023/06/06 00:32:58;;;;;;;;;12.20;11.20;;;;;19.12;53.07;99333.34;5083539;28;9752;-74
2023/06/06 00:35:27;;;;;;;;;13.00;11.60;;;;;18.90;53.64;99339.09;5049034;28;8970;-74
2023/06/06 00:37:56;;;;;;;;;10.40;9.60;;;;;19.02;53.21;99345.50;5071167;28;8961;-72
2023/06/06 00:40:25;;;;;;;;;12.80;10.60;;;;;18.76;53.84;99344.31;5100444;28;8848;-74
2023/06/06 00:42:54;;;;;;;;;8.00;5.00;;;;;18.93;53.36;99357.56;5087895;28;8936;-75
2023/06/06 00:45:23;;;;;;;;;9.60;9.60;;;;;18.55;54.86;99351.75;5086949;28;8839;-74
2023/06/06 00:47:53;;;;;;;;;10.80;10.80;;;;;17.87;57.61;99352.84;5052349;28;8978;-74
2023/06/06 00:50:23;;;;;;;;;11.40;11.00;;;;;18.21;56.94;99356.31;5073263;28;8854;-75
2023/06/06 00:52:54;;;;;;;;;14.60;12.40;;;;;17.72;58.82;99354.53;5067456;28;8886;-75
2023/06/06 00:55:24;;;;;;;;;8.80;8.20;;;;;18.28;57.02;99354.19;5067315;28;8924;-76
2023/06/06 00:57:52;;;;;;;;;14.20;14.20;;;;;18.46;56.67;99346.94;5069218;28;8843;-76
2023/06/06 01:00:22;;;;;;;;;9.00;9.00;;;;;18.69;56.07;99349.16;5069122;28;8852;-76
2023/06/06 01:02:53;;;;;;;;;10.20;10.20;;;;;18.88;55.43;99348.97;5086365;28;8867;-77
2023/06/06 01:05:22;;;;;;;;;10.80;10.80;;;;;19.04;55.24;99340.94;5116260;27;8842;-74
2023/06/06 01:07:53;;;;;;;;;13.80;11.20;;;;;18.96;54.89;99343.19;5082830;28;9720;-76
2023/06/06 01:10:24;;;;;;;;;14.00;12.80;;;;;18.63;56.01;99348.66;5067697;28;8874;-78
2023/06/06 01:13:02;;;;;;;;;11.80;11.80;;;;;18.51;56.52;99345.75;5102034;28;8868;-76
2023/06/06 01:15:39;;;;;;;;;11.00;10.00;;;;;18.43;56.83;99352.47;5120084;27;8843;-78
2023/06/06 01:18:11;;;;;;;;;14.40;13.40;;;;;18.31;57.13;99349.56;5098462;28;8862;-79
2023/06/06 01:20:41;;;;;;;;;12.80;11.20;;;;;18.55;56.39;99349.09;5049205;28;8838;-74
2023/06/06 01:23:12;;;;;;;;;14.80;11.60;;;;;18.76;55.49;99349.66;5049719;28;8838;-75
2023/06/06 01:25:47;;;;;;;;;12.40;11.00;;;;;18.97;54.77;99352.03;5102416;28;8856;-75
2023/06/06 01:28:17;;;;;;;;;13.60;13.60;;;;;19.10;54.35;99345.91;5066235;28;8862;-74
2023/06/06 01:30:47;;;;;;;;;10.80;10.80;;;;;19.22;53.91;99348.78;5082887;28;8876;-78
2023/06/06 01:33:27;;;;;;;;;12.60;11.60;;;;;19.26;54.02;99345.00;5075089;28;8988;-75
2023/06/06 01:36:09;;;;;;;;;13.00;13.00;;;;;19.02;54.92;99345.50;5067157;28;8952;-75
2023/06/06 01:38:44;;;;;;;;;13.20;13.00;;;;;19.03;55.27;99336.56;5064917;28;8866;-76
2023/06/06 01:41:19;;;;;;;;;13.40;13.20;;;;;18.77;55.99;99346.06;5070984;28;8840;-74
2023/06/06 01:43:52;;;;;;;;;14.60;13.80;;;;;18.53;57.16;99340.34;5103378;28;8839;-76
2023/06/06 01:46:25;;;;;;;;;14.40;14.40;;;;;18.49;57.30;99344.13;5086262;28;8844;-75
2023/06/06 01:48:55;;;;;;;;;14.20;13.60;;;;;18.62;56.48;99341.63;5086147;28;8873;-75
2023/06/06 01:51:26;;;;;;;;;14.00;14.00;;;;;18.78;56.16;99330.94;5102914;28;8870;-75
2023/06/06 01:53:58;;;;;;;;;13.00;13.00;;;;;18.95;55.86;99328.19;5086059;28;8896;-75
2023/06/06 01:56:33;;;;;;;;;14.80;14.00;;;;;19.06;55.51;99339.03;5060656;28;8854;-79
2023/06/06 01:59:02;;;;;;;;;15.60;15.00;;;;;19.08;55.21;99330.94;5049389;28;8838;-75
2023/06/06 02:01:31;;;;;;;;;13.00;12.60;;;;;19.14;54.66;99333.28;5046947;28;8839;-75
2023/06/06 02:04:01;;;;;;;;;9.80;9.80;;;;;19.03;54.66;99331.25;5064122;28;8872;-76
2023/06/06 02:06:32;;;;;;;;;11.40;11.40;;;;;19.10;54.56;99329.94;5064336;28;8879;-76
2023/06/06 02:09:03;;;;;;;;;16.20;16.00;;;;;19.18;54.50;99333.91;5048155;28;8874;-74
2023/06/06 02:11:36;;;;;;;;;11.40;11.00;;;;;19.21;54.71;99333.75;5021674;28;8875;-75
2023/06/06 02:14:05;;;;;;;;;12.80;12.80;;;;;19.22;54.47;99340.78;5064785;28;8879;-77
2023/06/06 02:16:36;;;;;;;;;12.00;12.00;;;;;19.25;54.46;99332.59;5031372;28;8905;-74
2023/06/06 02:19:05;;;;;;;;;9.00;9.00;;;;;19.22;54.00;99335.47;5048416;28;8949;-75
2023/06/06 02:21:35;;;;;;;;;10.80;10.80;;;;;19.25;53.94;99335.25;5015438;28;8852;-74
2023/06/06 02:24:06;;;;;;;;;10.40;10.40;;;;;19.26;53.86;99327.19;5052961;28;8944;-73
2023/06/06 02:26:35;;;;;;;;;10.60;10.60;;;;;19.13;54.03;99336.88;5025393;28;8844;-75
2023/06/06 02:29:06;;;;;;;;;9.80;9.80;;;;;19.02;54.30;99341.97;5067875;28;9002;-74
2023/06/06 02:31:36;;;;;;;;;11.00;11.00;;;;;18.90;54.74;99347.06;5017978;28;8847;-76
2023/06/06 02:34:05;;;;;;;;;13.00;12.40;;;;;18.93;54.59;99349.56;5084468;28;9028;-75
2023/06/06 02:36:34;;;;;;;;;2.60;2.00;;;;;19.04;54.25;99356.06;5051221;28;8901;-75
2023/06/06 02:39:05;;;;;;;;;12.40;12.20;;;;;19.11;54.37;99360.94;5067570;28;8856;-74
2023/06/06 02:41:34;;;;;;;;;13.00;10.00;;;;;19.18;54.20;99363.22;5121396;27;8848;-75
2023/06/06 02:44:04;;;;;;;;;11.80;10.60;;;;;19.25;54.20;99360.13;5071613;28;8879;-76
2023/06/06 02:46:33;;;;;;;;;12.40;12.40;;;;;19.31;53.77;99364.22;5090332;28;8970;-75
2023/06/06 02:49:02;;;;;;;;;12.60;12.60;;;;;19.35;53.67;99360.44;5055087;28;8874;-75
2023/06/06 02:51:31;;;;;;;;;11.80;11.20;;;;;19.37;53.62;99355.84;5105804;28;8844;-74
2023/06/06 02:54:00;;;;;;;;;10.80;10.80;;;;;19.41;53.42;99365.38;5050120;28;9780;-74
2023/06/06 02:56:31;;;;;;;;;13.40;13.20;;;;;19.47;53.38;99359.66;5066014;28;8847;-75
2023/06/06 02:59:00;;;;;;;;;12.40;11.00;;;;;19.50;53.27;99361.31;5050145;28;8894;-76
2023/06/06 03:01:30;;;;;;;;;15.00;13.60;;;;;19.51;53.07;99358.56;5033901;28;8916;-74
2023/06/06 03:03:59;;;;;;;;;14.20;14.20;;;;;19.46;53.30;99359.75;5066920;28;8864;-76
2023/06/06 03:06:29;;;;;;;;;12.00;11.00;;;;;19.47;53.18;99359.66;5050991;28;8848;-73
2023/06/06 03:08:58;;;;;;;;;14.00;12.40;;;;;19.50;53.21;99364.81;5066861;28;8840;-75
2023/06/06 03:11:30;;;;;;;;;17.00;15.40;;;;;19.51;53.06;99355.00;5066112;28;8859;-74
2023/06/06 03:14:02;;;;;;;;;13.60;12.60;;;;;19.57;53.15;99357.31;5083898;28;8867;-74
2023/06/06 03:16:34;;;;;;;;;11.60;10.20;;;;;19.62;52.81;99359.72;5067311;28;8868;-74
2023/06/06 03:19:04;;;;;;;;;14.20;13.80;;;;;19.62;52.66;99362.38;5046913;28;8858;-75
2023/06/06 03:21:36;;;;;;;;;11.20;11.20;;;;;19.13;54.29;99364.34;5031174;28;8857;-76
2023/06/06 03:24:07;;;;;;;;;16.20;16.00;;;;;18.62;56.13;99368.25;5031659;28;8878;-75
2023/06/06 03:26:39;;;;;;;;;14.60;13.80;;;;;18.63;56.25;99372.59;5062967;28;8847;-76
2023/06/06 03:29:10;;;;;;;;;14.20;13.60;;;;;18.39;57.20;99377.53;5071682;28;8906;-79
2023/06/06 03:31:41;;;;;;;;;17.60;16.20;;;;;18.57;56.72;99373.81;5089660;28;8846;-76
2023/06/06 03:34:09;;;;;;;;;16.60;15.80;;;;;18.44;57.49;99362.16;5089524;28;8944;-75
2023/06/06 03:36:40;;;;;;;;;15.60;14.60;;;;;18.72;56.75;99359.66;5083641;28;8831;-75
2023/06/06 03:39:11;;;;;;;;;16.00;15.80;;;;;18.89;56.38;99358.69;5101518;28;9001;-77
2023/06/06 03:41:40;;;;;;;;;14.80;13.60;;;;;19.09;55.95;99351.31;5096327;28;8836;-75
2023/06/06 03:44:10;;;;;;;;;14.80;12.80;;;;;19.25;55.78;99356.59;5122381;27;8960;-72
2023/06/06 03:46:39;;;;;;;;;17.40;15.60;;;;;19.43;55.27;99354.63;5088226;28;8859;-75
2023/06/06 03:49:08;;;;;;;;;27.20;22.80;;;;;19.42;54.78;99360.91;5085353;28;8868;-75
2023/06/06 03:51:40;;;;;;;;;15.00;14.60;;;;;19.56;54.43;99360.09;5101315;28;8869;-76
2023/06/06 03:54:08;;;;;;;;;14.60;14.60;;;;;19.64;54.13;99356.00;5026905;28;8945;-75
2023/06/06 03:56:40;;;;;;;;;20.00;18.20;;;;;19.73;54.07;99362.59;5061184;28;8857;-77
2023/06/06 03:59:12;;;;;;;;;16.40;14.40;;;;;19.80;54.11;99355.03;5069268;28;8880;-74
2023/06/06 04:01:44;;;;;;;;;16.00;14.80;;;;;19.87;53.72;99359.03;5086350;28;8866;-74
2023/06/06 04:04:15;;;;;;;;;15.60;14.60;;;;;19.89;53.63;99357.97;5070978;28;8846;-75
2023/06/06 04:06:45;;;;;;;;;16.40;14.80;;;;;19.94;53.62;99356.88;5067122;28;8864;-74
2023/06/06 04:09:15;;;;;;;;;14.60;14.60;;;;;19.85;53.88;99364.47;5067949;28;8851;-73
2023/06/06 04:11:44;;;;;;;;;15.80;14.80;;;;;19.96;53.79;99362.97;5083388;28;8839;-78
2023/06/06 04:14:15;;;;;;;;;18.00;16.40;;;;;20.04;53.88;99364.16;5070423;28;8867;-74
2023/06/06 04:16:44;;;;;;;;;19.40;18.60;;;;;20.17;53.57;99360.72;5086057;28;8847;-76
2023/06/06 04:19:13;;;;;;;;;19.60;18.80;;;;;20.26;53.83;99361.03;5086718;28;8944;-75
2023/06/06 04:21:42;;;;;;;;;17.20;16.20;;;;;20.36;53.78;99368.44;5088143;28;9411;-75
2023/06/06 04:24:12;;;;;;;;;16.20;16.20;;;;;20.28;53.61;99367.13;5120845;27;8932;-75
2023/06/06 04:26:42;;;;;;;;;19.60;17.80;;;;;20.36;53.59;99366.63;5086059;28;8851;-75
2023/06/06 04:29:13;;;;;;;;;18.20;17.20;;;;;20.45;52.94;99368.69;5086399;28;8880;-74
2023/06/06 04:31:45;;;;;;;;;20.40;20.40;;;;;20.41;53.45;99369.00;5068598;28;8956;-76
2023/06/06 04:34:17;;;;;;;;;19.60;19.40;;;;;20.52;53.48;99376.31;5086663;28;8867;-75
2023/06/06 04:36:51;;;;;;;;;16.60;16.20;;;;;20.58;53.51;99371.44;5097534;28;8858;-75
2023/06/06 04:39:23;;;;;;;;;17.40;15.00;;;;;20.60;53.65;99368.66;5073951;28;9012;-75
2023/06/06 04:41:56;;;;;;;;;21.00;19.20;;;;;20.74;53.36;99371.28;5080713;28;8924;-78
2023/06/06 04:44:25;;;;;;;;;15.40;15.40;;;;;20.94;53.01;99369.13;5087298;28;8867;-74
2023/06/06 04:47:00;;;;;;;;;17.40;17.20;;;;;21.11;52.55;99360.84;5086217;28;8878;-75
2023/06/06 04:49:30;;;;;;;;;15.80;14.60;;;;;21.23;51.38;99357.31;5086231;28;8875;-77
2023/06/06 04:52:02;;;;;;;;;15.40;15.40;;;;;21.37;50.87;99358.16;5081091;28;8873;-75
2023/06/06 04:54:31;;;;;;;;;16.20;16.20;;;;;21.55;50.15;99348.03;5067248;28;8938;-76
2023/06/06 04:57:01;;;;;;;;;16.80;15.40;;;;;21.62;49.44;99352.03;5063049;28;8826;-77
2023/06/06 04:59:32;;;;;;;;;15.20;14.80;;;;;21.76;49.45;99353.72;5067187;28;8876;-76
2023/06/06 05:02:02;;;;;;;;;15.00;15.00;;;;;21.87;48.51;99363.66;5066878;28;9607;-76
2023/06/06 05:04:32;;;;;;;;;17.00;17.00;;;;;22.01;48.53;99363.50;5067235;28;8857;-75
2023/06/06 05:07:01;;;;;;;;;14.80;14.80;;;;;21.96;48.61;99355.84;5065701;28;8874;-78
2023/06/06 05:09:30;;;;;;;;;14.00;14.00;;;;;22.15;47.94;99347.31;5067206;28;9721;-75
2023/06/06 05:11:59;;;;;;;;;14.20;13.40;;;;;22.26;47.45;99353.75;5080757;28;8856;-75
2023/06/06 05:14:27;;;;;;;;;13.00;12.40;;;;;22.34;47.02;99351.38;5086181;28;8855;-73
2023/06/06 05:16:58;;;;;;;;;18.80;15.80;;;;;22.38;46.31;99352.84;5087154;28;8882;-79
2023/06/06 05:19:28;;;;;;;;;14.20;12.20;;;;;22.44;46.52;99359.59;5064501;28;8904;-78
2023/06/06 05:21:57;;;;;;;;;13.00;13.00;;;;;22.55;46.15;99357.81;5066987;28;9777;-76
2023/06/06 05:24:26;;;;;;;;;19.60;17.20;;;;;22.51;46.60;99363.53;5101182;28;8863;-76
2023/06/06 05:26:55;;;;;;;;;18.60;16.00;;;;;22.49;46.60;99360.97;5073321;28;8876;-74
2023/06/06 05:29:26;;;;;;;;;14.20;14.20;;;;;22.65;46.50;99365.19;5066665;28;8858;-73
2023/06/06 05:31:55;;;;;;;;;16.80;15.20;;;;;22.81;46.21;99363.06;5066445;28;9642;-73
2023/06/06 05:34:24;;;;;;;;;25.60;25.20;;;;;22.43;46.96;99361.44;5066239;28;8846;-73
2023/06/06 05:36:55;;;;;;;;;20.20;17.40;;;;;22.58;46.91;99359.41;5047545;28;8935;-73
2023/06/06 05:39:24;;;;;;;;;17.60;17.40;;;;;22.67;46.45;99364.09;5066570;28;8847;-74
2023/06/06 05:41:54;;;;;;;;;16.40;15.00;;;;;22.91;46.03;99368.63;5036296;28;8963;-78
2023/06/06 05:44:24;;;;;;;;;16.20;16.00;;;;;23.04;45.48;99360.50;5070777;28;8846;-75
2023/06/06 05:46:55;;;;;;;;;16.00;14.40;;;;;23.18;45.01;99357.63;5084475;28;8912;-75
2023/06/06 05:49:24;;;;;;;;;13.60;12.80;;;;;23.36;44.77;99356.19;5098711;28;8852;-76
2023/06/06 05:51:55;;;;;;;;;13.80;13.40;;;;;23.46;44.08;99369.75;5089288;28;8924;-73
2023/06/06 05:54:24;;;;;;;;;21.00;21.00;;;;;23.03;44.89;99372.19;5091739;28;8851;-76
2023/06/06 05:56:58;;;;;;;;;17.20;16.00;;;;;23.17;45.19;99378.22;5031081;28;8843;-73
2023/06/06 05:59:26;;;;;;;;;15.00;15.00;;;;;23.39;44.52;99374.75;5048369;28;8864;-77
2023/06/06 06:01:55;;;;;;;;;14.60;13.20;;;;;23.62;44.06;99377.50;5047135;28;8855;-76
2023/06/06 06:04:24;;;;;;;;;13.80;13.80;;;;;23.65;43.64;99381.75;5014244;28;8871;-75
2023/06/06 06:06:55;;;;;;;;;18.80;16.80;;;;;23.83;43.08;99379.44;5014764;28;8854;-74
2023/06/06 06:09:24;;;;;;;;;17.80;16.60;;;;;24.01;43.39;99379.81;5045508;28;8985;-75
2023/06/06 06:11:53;;;;;;;;;14.60;13.80;;;;;24.12;43.82;99390.56;5045838;28;8870;-71
2023/06/06 06:14:21;;;;;;;;;14.20;13.20;;;;;24.25;43.45;99390.47;5047465;28;8852;-71
2023/06/06 06:16:50;;;;;;;;;14.20;14.20;;;;;24.26;43.78;99392.16;5047459;28;8953;-71
2023/06/06 06:19:19;;;;;;;;;15.00;15.00;;;;;24.31;43.93;99395.34;5047216;28;9748;-73
2023/06/06 06:21:49;;;;;;;;;14.60;14.60;;;;;24.33;43.59;99396.91;5046993;28;8863;-75
2023/06/06 06:24:19;;;;;;;;;17.00;15.80;;;;;24.39;43.48;99400.94;5046868;28;8872;-71
2023/06/06 06:26:50;;;;;;;;;14.60;13.60;;;;;24.23;43.80;99398.66;5045557;28;8940;-70
2023/06/06 06:29:18;;;;;;;;;12.40;12.40;;;;;23.78;44.21;99394.09;5066437;28;8862;-70
2023/06/06 06:31:48;;;;;;;;;17.80;17.20;;;;;23.71;44.89;99395.53;5069232;28;8858;-72
2023/06/06 06:34:16;;;;;;;;;13.20;13.20;;;;;23.63;45.33;99386.41;5075762;28;8862;-73
2023/06/06 06:36:45;;;;;;;;;16.60;16.00;;;;;23.44;45.43;99392.31;5089761;28;8859;-70
2023/06/06 06:39:18;;;;;;;;;15.00;13.80;;;;;23.54;45.90;99398.69;5084026;28;8863;-71
2023/06/06 06:41:50;;;;;;;;;14.40;14.40;;;;;23.49;46.44;99395.50;5064385;28;9073;-69
2023/06/06 06:44:19;;;;;;;;;15.00;15.00;;;;;23.34;47.00;99394.84;5074041;28;8977;-71
2023/06/06 06:46:48;;;;;;;;;16.00;16.00;;;;;23.39;46.86;99392.66;5071594;28;8913;-69
2023/06/06 06:49:17;;;;;;;;;17.40;17.00;;;;;23.11;47.77;99413.56;5082426;28;8947;-72
2023/06/06 06:51:47;;;;;;;;;16.00;15.20;;;;;23.21;47.55;99416.38;5069936;28;8846;-70
2023/06/06 06:54:19;;;;;;;;;15.00;15.00;;;;;23.07;47.88;99413.88;5068739;28;8862;-70
2023/06/06 06:56:51;;;;;;;;;16.60;16.60;;;;;23.19;48.10;99418.31;5072079;28;8878;-70
2023/06/06 06:59:21;;;;;;;;;20.40;20.40;;;;;23.36;47.84;99412.53;5069163;28;8854;-70
2023/06/06 07:01:50;;;;;;;;;24.00;23.00;;;;;22.92;48.53;99407.84;5034878;28;8941;-70
2023/06/06 07:04:19;;;;;;;;;39.60;33.20;;;;;23.09;48.32;99411.94;5068771;28;9096;-71
2023/06/06 07:06:48;;;;;;;;;37.60;33.40;;;;;23.30;47.84;99407.63;5069330;28;8866;-70
2023/06/06 07:09:20;;;;;;;;;34.40;30.40;;;;;23.39;47.35;99395.31;5033725;28;8892;-69
2023/06/06 07:11:50;;;;;;;;;28.20;27.40;;;;;23.63;46.83;99400.66;5070880;28;8850;-70
2023/06/06 07:14:19;;;;;;;;;32.60;30.20;;;;;23.39;46.71;99396.22;5036122;28;8863;-70
2023/06/06 07:16:48;;;;;;;;;24.60;24.60;;;;;23.60;46.26;99398.19;5089119;28;8878;-75
2023/06/06 07:19:17;;;;;;;;;30.80;29.80;;;;;23.25;46.57;99395.56;5072778;28;8844;-70
2023/06/06 07:21:46;;;;;;;;;21.20;20.60;;;;;23.46;46.49;99395.72;5084676;28;8877;-71
2023/06/06 07:24:16;;;;;;;;;18.00;18.00;;;;;23.43;46.38;99402.19;5100702;28;8847;-69
2023/06/06 07:26:45;;;;;;;;;16.60;16.20;;;;;23.53;46.09;99397.00;5055505;28;8977;-70
2023/06/06 07:29:16;;;;;;;;;16.80;15.60;;;;;23.58;45.78;99398.34;5068467;28;8869;-69
2023/06/06 07:31:45;;;;;;;;;15.00;14.20;;;;;23.41;46.31;99398.75;5068613;28;8858;-70
2023/06/06 07:34:14;;;;;;;;;16.40;13.60;;;;;23.52;45.96;99406.00;5066480;28;8862;-69
2023/06/06 07:36:43;;;;;;;;;19.80;18.60;;;;;23.46;46.05;99395.72;5068629;28;8846;-70
2023/06/06 07:39:12;;;;;;;;;16.80;16.00;;;;;23.48;46.34;99396.47;5068357;28;8858;-69
2023/06/06 07:41:41;;;;;;;;;17.40;16.60;;;;;23.21;46.17;99397.63;5005367;28;8881;-70
2023/06/06 07:44:10;;;;;;;;;17.40;17.40;;;;;23.18;46.12;99390.63;5045866;28;9577;-70
2023/06/06 07:46:40;;;;;;;;;17.40;16.00;;;;;23.19;46.43;99396.88;5062912;28;8858;-69
2023/06/06 07:49:09;;;;;;;;;15.40;15.40;;;;;23.22;46.46;99401.13;5086139;28;8850;-71
2023/06/06 07:51:39;;;;;;;;;19.20;17.00;;;;;23.33;45.93;99401.19;5085868;28;8830;-70
2023/06/06 07:54:08;;;;;;;;;15.40;15.40;;;;;23.41;45.91;99393.38;5086211;28;8911;-71
2023/06/06 07:56:37;;;;;;;;;16.80;16.20;;;;;23.33;45.81;99391.28;5061405;28;8854;-72
2023/06/06 07:59:06;;;;;;;;;15.20;15.20;;;;;23.10;46.31;99384.16;5045482;28;8935;-70
2023/06/06 08:01:35;;;;;;;;;16.20;15.40;;;;;23.12;45.64;99384.91;5064263;28;8935;-71
2023/06/06 08:04:07;;;;;;;;;13.20;13.20;;;;;23.17;45.61;99394.31;5019775;28;8883;-70
2023/06/06 08:06:37;;;;;;;;;12.80;12.80;;;;;23.19;45.32;99402.25;5068277;28;8977;-70
2023/06/06 08:09:06;;;;;;;;;14.20;14.20;;;;;23.25;45.43;99404.44;5085492;28;8871;-69
2023/06/06 08:11:35;;;;;;;;;14.00;14.00;;;;;23.10;45.55;99408.31;5062126;28;8833;-71
2023/06/06 08:14:04;;;;;;;;;15.20;15.20;;;;;23.24;45.05;99409.91;5067552;28;9678;-70
2023/06/06 08:16:33;;;;;;;;;15.60;15.00;;;;;23.43;44.64;99414.72;5083219;28;8880;-69
2023/06/06 08:19:03;;;;;;;;;14.80;14.60;;;;;23.63;43.96;99414.09;5032713;28;8866;-71
2023/06/06 08:21:33;;;;;;;;;15.60;14.60;;;;;23.53;44.31;99407.72;5067249;28;8838;-70
2023/06/06 08:24:02;;;;;;;;;13.60;13.20;;;;;23.62;44.40;99412.38;5015866;28;8876;-70
2023/06/06 08:26:32;;;;;;;;;18.20;17.00;;;;;23.60;43.96;99405.41;5076303;28;8855;-72
2023/06/06 08:29:00;;;;;;;;;13.20;12.00;;;;;23.56;43.98;99399.44;5088134;28;8855;-70
2023/06/06 08:31:30;;;;;;;;;13.20;13.20;;;;;23.52;43.68;99389.91;5088193;28;8886;-72
2023/06/06 08:33:59;;;;;;;;;13.40;13.40;;;;;23.52;43.96;99379.19;5084752;28;8939;-69
2023/06/06 08:36:28;;;;;;;;;14.60;12.60;;;;;23.29;44.31;99384.47;5065145;28;8862;-69
2023/06/06 08:38:58;;;;;;;;;14.00;14.00;;;;;23.42;44.18;99391.56;5067563;28;8866;-71
2023/06/06 08:41:27;;;;;;;;;13.60;13.60;;;;;23.19;44.76;99392.38;5067052;28;8830;-69
2023/06/06 08:43:57;;;;;;;;;13.80;13.40;;;;;23.29;43.94;99381.78;5067570;28;8904;-69
2023/06/06 08:46:26;;;;;;;;;14.60;14.60;;;;;23.23;43.86;99392.13;5067418;28;9729;-72
2023/06/06 08:48:57;;;;;;;;;13.00;12.00;;;;;23.28;43.61;99403.34;5067195;28;8846;-70
2023/06/06 08:51:27;;;;;;;;;16.00;15.60;;;;;23.21;43.91;99389.56;5049686;28;8875;-71
2023/06/06 08:53:59;;;;;;;;;12.80;11.40;;;;;23.27;44.00;99401.66;5086695;28;8855;-71
2023/06/06 08:56:28;;;;;;;;;13.60;13.60;;;;;23.47;44.40;99394.75;5078272;28;8982;-75
2023/06/06 08:58:57;;;;;;;;;14.60;14.60;;;;;23.23;44.12;99386.78;5067249;28;8858;-72
2023/06/06 09:01:28;;;;;;;;;14.40;13.20;;;;;23.25;44.23;99383.00;5066791;28;8834;-70
2023/06/06 09:03:58;;;;;;;;;16.20;14.60;;;;;23.27;44.47;99393.59;5067053;28;8908;-73
2023/06/06 09:06:27;;;;;;;;;11.00;11.00;;;;;23.25;44.30;99399.09;5066616;28;8866;-73
2023/06/06 09:08:58;;;;;;;;;15.20;15.00;;;;;23.23;44.41;99405.53;5081908;28;8880;-72
2023/06/06 09:11:27;;;;;;;;;14.60;13.00;;;;;22.90;44.25;99399.06;5079176;28;8880;-75
2023/06/06 09:13:55;;;;;;;;;13.20;13.20;;;;;23.12;44.13;99401.00;5079370;28;8890;-74
2023/06/06 09:16:26;;;;;;;;;11.80;11.60;;;;;23.35;44.25;99413.47;5066426;28;8869;-75
2023/06/06 09:18:57;;;;;;;;;12.00;12.00;;;;;23.36;44.48;99409.00;5066720;28;8850;-76
2023/06/06 09:21:29;;;;;;;;;12.60;12.60;;;;;23.13;44.69;99418.81;5066776;28;8900;-76
2023/06/06 09:24:00;;;;;;;;;13.20;12.80;;;;;22.99;44.34;99412.63;5049679;28;9123;-77
2023/06/06 09:26:34;;;;;;;;;13.40;12.00;;;;;23.07;44.25;99416.56;5082393;28;8873;-78
2023/06/06 09:29:08;;;;;;;;;12.20;11.40;;;;;23.02;44.13;99414.25;5086495;28;10010;-78
2023/06/06 09:31:38;;;;;;;;;11.60;10.00;;;;;22.99;44.50;99414.47;5082299;28;8860;-77
2023/06/06 09:34:10;;;;;;;;;14.20;13.60;;;;;22.90;44.74;99412.47;5086819;28;8852;-76
2023/06/06 09:36:42;;;;;;;;;10.00;9.00;;;;;22.73;44.56;99413.69;5101757;28;9010;-78
2023/06/06 09:39:14;;;;;;;;;13.60;12.40;;;;;22.84;44.44;99411.06;5090784;28;8872;-77
2023/06/06 09:41:45;;;;;;;;;11.20;10.20;;;;;22.97;44.03;99403.84;5072682;28;8854;-76
2023/06/06 09:44:19;;;;;;;;;11.00;11.00;;;;;23.03;43.93;99399.84;5081225;28;8958;-76
2023/06/06 09:46:49;;;;;;;;;13.80;13.00;;;;;23.08;43.87;99407.56;5081158;28;9638;-77
2023/06/06 09:49:20;;;;;;;;;11.20;11.20;;;;;22.85;43.96;99409.25;5077943;28;8878;-76
2023/06/06 09:51:54;;;;;;;;;11.60;11.60;;;;;23.15;43.15;99414.19;5091779;28;8879;-77
2023/06/06 09:54:24;;;;;;;;;10.00;10.00;;;;;23.41;42.89;99420.22;5081719;28;8848;-76
2023/06/06 09:56:56;;;;;;;;;9.60;9.60;;;;;23.63;42.57;99418.59;5046948;28;8863;-76
2023/06/06 09:59:26;;;;;;;;;9.60;9.60;;;;;23.64;41.31;99413.13;5078345;28;9647;-76
2023/06/06 10:02:10;;;;;;;;;8.80;8.00;;;;;23.55;40.87;99411.16;5086454;28;8863;-78
2023/06/06 10:04:40;;;;;;;;;9.80;9.80;;;;;23.41;40.87;99414.84;5099120;27;8866;-76
2023/06/06 10:07:11;;;;;;;;;7.20;7.20;;;;;23.49;40.59;99417.81;5085423;28;8871;-76
2023/06/06 10:09:41;;;;;;;;;9.20;9.20;;;;;23.38;40.16;99417.78;5048554;28;8844;-77
2023/06/06 10:12:12;;;;;;;;;11.20;10.20;;;;;23.42;39.99;99403.16;5064228;28;8877;-78
2023/06/06 10:14:41;;;;;;;;;10.60;10.40;;;;;23.53;39.52;99405.91;5084929;28;8956;-76
2023/06/06 10:17:13;;;;;;;;;7.20;7.20;;;;;23.52;39.59;99409.53;5068587;28;8856;-77
2023/06/06 10:19:42;;;;;;;;;7.20;7.20;;;;;23.77;39.05;99410.31;5086598;28;8876;-76
2023/06/06 10:22:11;;;;;;;;;7.00;7.00;;;;;23.92;38.92;99408.25;5085454;28;8864;-76
2023/06/06 10:24:42;;;;;;;;;8.00;8.00;;;;;23.61;39.21;99405.28;5086860;28;9746;-75
2023/06/06 10:27:19;;;;;;;;;7.20;7.20;;;;;23.77;38.82;99415.66;5088145;28;8871;-77
2023/06/06 10:29:53;;;;;;;;;6.40;6.40;;;;;23.71;38.54;99410.78;5105312;28;8856;-76
2023/06/06 10:32:29;;;;;;;;;7.00;7.00;;;;;23.92;37.87;99411.81;5090571;28;8868;-76
2023/06/06 10:35:00;;;;;;;;;11.00;10.00;;;;;24.03;37.98;99402.88;5079111;28;8843;-78
2023/06/06 10:37:33;;;;;;;;;7.80;7.80;;;;;24.06;38.07;99394.59;5088594;28;8848;-77
2023/06/06 10:40:05;;;;;;;;;6.00;5.80;;;;;23.70;38.10;99406.41;5090240;28;8852;-77
2023/06/06 10:42:38;;;;;;;;;5.40;5.40;;;;;23.88;37.93;99401.41;5085844;28;8880;-77
2023/06/06 10:45:08;;;;;;;;;5.80;5.80;;;;;23.51;38.93;99401.59;5083014;28;8963;-79
2023/06/06 10:47:39;;;;;;;;;4.20;4.20;;;;;23.69;38.35;99396.66;5088478;28;8898;-79
2023/06/06 10:50:22;;;;;;;;;6.60;6.60;;;;;23.98;38.19;99389.00;5075219;28;8986;-76
2023/06/06 10:52:53;;;;;;;;;7.80;7.80;;;;;24.03;37.90;99389.47;5095835;28;8850;-78
2023/06/06 10:55:45;;;;;;;;;7.00;7.00;;;;;24.27;37.44;99391.19;5107211;28;8851;-75
2023/06/06 10:58:24;;;;;;;;;8.60;7.40;;;;;24.38;37.60;99385.81;5090331;28;8856;-75
2023/06/06 11:00:59;;;;;;;;;8.20;7.20;;;;;24.46;37.39;99390.53;5107544;28;9558;-77
2023/06/06 11:03:39;;;;;;;;;6.20;6.20;;;;;24.29;37.69;99392.75;5102535;28;9597;-77
2023/06/06 11:06:11;;;;;;;;;8.20;7.80;;;;;24.35;37.97;99399.47;5087795;27;8932;-76
2023/06/06 11:08:44;;;;;;;;;8.80;8.80;;;;;24.58;36.98;99394.91;5101923;28;9010;-77
2023/06/06 11:11:23;;;;;;;;;9.40;8.40;;;;;24.58;37.42;99397.59;5106654;28;8840;-76
2023/06/06 11:13:54;;;;;;;;;9.80;9.80;;;;;24.52;37.22;99392.72;5106767;28;8895;-78
2023/06/06 11:16:31;;;;;;;;;7.40;7.40;;;;;24.72;37.44;99397.31;5113864;28;9117;-76
2023/06/06 11:19:04;;;;;;;;;10.40;8.80;;;;;24.72;37.40;99405.38;5107656;28;8863;-76
2023/06/06 11:21:36;;;;;;;;;7.40;7.40;;;;;24.77;37.34;99402.34;5107329;28;8864;-76
2023/06/06 11:24:07;;;;;;;;;9.00;9.00;;;;;24.79;38.07;99396.84;5083416;28;10071;-77
2023/06/06 11:26:40;;;;;;;;;9.00;9.00;;;;;24.73;37.82;99395.50;5087989;28;8860;-77
2023/06/06 11:29:11;;;;;;;;;10.40;10.40;;;;;24.70;38.45;99393.06;5037139;28;8990;-77
2023/06/06 11:31:40;;;;;;;;;8.00;7.20;;;;;24.83;38.64;99388.41;5088621;28;8890;-76
2023/06/06 11:34:11;;;;;;;;;8.20;8.20;;;;;24.79;39.55;99392.31;5087410;28;8889;-76
2023/06/06 11:36:42;;;;;;;;;10.60;8.80;;;;;24.78;39.17;99382.53;5077312;28;8863;-77
2023/06/06 11:39:12;;;;;;;;;8.00;8.00;;;;;24.57;39.47;99385.16;5079000;28;8876;-75
2023/06/06 11:41:44;;;;;;;;;11.20;10.00;;;;;24.48;40.20;99381.38;5087283;28;8899;-75
2023/06/06 11:44:17;;;;;;;;;9.00;8.60;;;;;24.15;40.00;99369.72;5070714;28;8943;-77